createdAt,value
2023-05-03T00:00:50.492Z,1.85
2023-05-03T00:03:23.823Z,0.52
2023-05-03T00:05:52.312Z,1.52
2023-05-03T00:08:21.788Z,3.33
2023-05-03T00:10:49.848Z,0.38
2023-05-03T00:13:17.804Z,1.10
2023-05-03T00:15:45.735Z,1.77
2023-05-03T00:18:13.742Z,0.52
2023-05-03T00:20:43.032Z,0.65
2023-05-03T00:23:11.519Z,0.40
2023-05-03T00:25:39.937Z,0.80
2023-05-03T00:28:08.718Z,1.13
2023-05-03T00:30:36.687Z,0.60
2023-05-03T00:33:04.905Z,0.75
2023-05-03T00:35:32.921Z,1.65
2023-05-03T00:38:02.330Z,1.35
2023-05-03T00:40:30.737Z,1.05
2023-05-03T00:42:59.098Z,0.52
2023-05-03T00:45:27.288Z,0.80
2023-05-03T00:47:55.459Z,0.57
2023-05-03T00:50:23.828Z,0.80
2023-05-03T00:52:52.868Z,0.30
2023-05-03T00:55:22.859Z,1.00
2023-05-03T00:57:50.853Z,0.93
2023-05-03T01:00:19.457Z,1.02
2023-05-03T01:02:47.537Z,1.23
2023-05-03T01:05:15.889Z,1.40
2023-05-03T01:07:54.814Z,3.17
2023-05-03T01:10:31.240Z,0.80
2023-05-03T01:13:10.331Z,2.25
2023-05-03T01:15:49.090Z,1.38
2023-05-03T01:18:22.080Z,1.50
2023-05-03T01:20:51.886Z,0.82
2023-05-03T01:23:31.165Z,0.98
2023-05-03T01:26:01.058Z,0.70
2023-05-03T01:28:29.072Z,1.15
2023-05-03T01:31:00.078Z,2.17
2023-05-03T01:33:36.511Z,1.45
2023-05-03T01:36:13.141Z,1.83
2023-05-03T01:38:41.402Z,1.65
2023-05-03T01:41:13.785Z,0.73
2023-05-03T01:43:42.334Z,2.47
2023-05-03T01:46:10.918Z,1.75
2023-05-03T01:48:38.913Z,0.35
2023-05-03T01:51:06.916Z,2.08
2023-05-03T01:53:34.844Z,0.93
2023-05-03T01:56:03.087Z,0.93
2023-05-03T01:58:32.590Z,2.28
2023-05-03T02:01:00.616Z,1.67
2023-05-03T02:03:28.652Z,1.30
2023-05-03T02:05:56.556Z,0.30
2023-05-03T02:08:24.629Z,1.92
2023-05-03T02:10:52.639Z,0.75
2023-05-03T02:13:20.623Z,0.50
2023-05-03T02:15:50.030Z,0.50
2023-05-03T02:18:18.537Z,0.45
2023-05-03T02:20:46.863Z,1.25
2023-05-03T02:23:15.083Z,0.47
2023-05-03T02:25:43.069Z,0.50
2023-05-03T02:28:11.306Z,1.20
2023-05-03T02:30:39.423Z,0.60
2023-05-03T02:33:09.024Z,1.05
2023-05-03T02:35:38.720Z,1.48
2023-05-03T02:38:07.610Z,1.65
2023-05-03T02:40:35.712Z,0.40
2023-05-03T02:43:03.973Z,0.40
2023-05-03T02:45:32.824Z,0.77
2023-05-03T02:48:00.829Z,0.30
2023-05-03T02:50:30.193Z,0.52
2023-05-03T02:52:58.299Z,0.35
2023-05-03T02:55:26.761Z,1.92
2023-05-03T02:57:54.940Z,1.17
2023-05-03T03:00:23.164Z,3.00
2023-05-03T03:02:51.261Z,1.23
2023-05-03T03:05:19.570Z,3.35
2023-05-03T03:07:51.794Z,0.95
2023-05-03T03:10:20.288Z,0.68
2023-05-03T03:12:49.619Z,0.90
2023-05-03T03:15:26.256Z,0.30
2023-05-03T03:17:57.799Z,0.57
2023-05-03T03:20:26.863Z,3.17
2023-05-03T03:22:56.619Z,0.50
2023-05-03T03:25:24.790Z,1.25
2023-05-03T03:27:53.687Z,0.57
2023-05-03T03:30:21.709Z,0.40
2023-05-03T03:33:02.142Z,2.85
2023-05-03T03:35:37.833Z,1.33
2023-05-03T03:38:08.092Z,0.50
2023-05-03T03:40:40.617Z,1.80
2023-05-03T03:43:08.830Z,0.50
2023-05-03T03:45:37.110Z,0.50
2023-05-03T03:48:07.161Z,0.32
2023-05-03T03:50:35.437Z,0.47
2023-05-03T03:53:03.750Z,0.95
2023-05-03T03:55:33.314Z,0.70
2023-05-03T03:58:01.303Z,0.32
2023-05-03T04:00:30.273Z,0.68
2023-05-03T04:03:07.988Z,7.57
2023-05-03T04:05:36.491Z,0.40
2023-05-03T04:08:06.220Z,0.55
2023-05-03T04:10:37.409Z,0.60
2023-05-03T04:13:06.023Z,0.68
2023-05-03T04:15:34.168Z,0.70
2023-05-03T04:18:05.719Z,1.02
2023-05-03T04:20:36.331Z,0.65
2023-05-03T04:23:06.175Z,1.35
2023-05-03T04:25:34.194Z,0.40
2023-05-03T04:28:09.866Z,0.40
2023-05-03T04:30:43.400Z,0.47
2023-05-03T04:33:11.829Z,0.28
2023-05-03T04:35:40.027Z,0.30
2023-05-03T04:38:11.432Z,1.13
2023-05-03T04:40:39.667Z,1.90
2023-05-03T04:43:11.853Z,0.38
2023-05-03T04:45:43.929Z,0.30
2023-05-03T04:48:18.128Z,0.40
2023-05-03T04:50:46.507Z,0.40
2023-05-03T04:53:17.680Z,1.05
2023-05-03T04:55:50.664Z,1.83
2023-05-03T04:58:20.213Z,0.20
2023-05-03T05:00:49.051Z,0.82
2023-05-03T05:03:23.698Z,3.55
2023-05-03T05:05:52.650Z,0.73
2023-05-03T05:08:21.846Z,1.45
2023-05-03T05:10:54.777Z,0.45
2023-05-03T05:13:28.045Z,0.60
2023-05-03T05:15:56.054Z,1.35
2023-05-03T05:18:24.298Z,0.55
2023-05-03T05:20:53.902Z,0.30
2023-05-03T05:23:22.070Z,0.45
2023-05-03T05:25:50.235Z,0.98
2023-05-03T05:28:18.826Z,1.15
2023-05-03T05:30:49.149Z,2.25
2023-05-03T05:33:18.988Z,0.45
2023-05-03T05:35:48.905Z,0.88
2023-05-03T05:38:18.912Z,1.05
2023-05-03T05:40:47.189Z,1.27
2023-05-03T05:43:16.105Z,0.30
2023-05-03T05:45:46.723Z,0.30
2023-05-03T05:48:16.510Z,0.90
2023-05-03T05:50:46.122Z,1.13
2023-05-03T05:53:15.771Z,0.65
2023-05-03T05:55:50.968Z,0.88
2023-05-03T05:58:19.238Z,3.40
2023-05-03T06:00:52.047Z,0.60
2023-05-03T06:03:21.627Z,1.27
2023-05-03T06:05:51.592Z,1.00
2023-05-03T06:08:19.651Z,2.53
2023-05-03T06:10:47.644Z,1.40
2023-05-03T06:13:16.089Z,0.68
2023-05-03T06:15:45.035Z,3.35
2023-05-03T06:18:13.042Z,0.50
2023-05-03T06:20:42.544Z,1.55
2023-05-03T06:23:10.464Z,0.65
2023-05-03T06:25:39.047Z,0.50
2023-05-03T06:28:07.257Z,1.52
2023-05-03T06:30:36.926Z,0.93
2023-05-03T06:33:14.606Z,2.25
2023-05-03T06:35:47.262Z,0.35
2023-05-03T06:38:17.641Z,1.42
2023-05-03T06:40:46.199Z,2.33
2023-05-03T06:43:14.340Z,0.52
2023-05-03T06:45:52.973Z,0.50
2023-05-03T06:48:21.680Z,0.28
2023-05-03T06:50:51.309Z,0.60
2023-05-03T06:53:19.376Z,0.52
2023-05-03T06:55:47.429Z,1.30
2023-05-03T06:58:16.738Z,1.27
2023-05-03T07:00:44.698Z,0.40
2023-05-03T07:03:12.951Z,9.20
2023-05-03T07:05:41.657Z,1.13
2023-05-03T07:08:11.167Z,4.38
2023-05-03T07:10:39.168Z,5.90
2023-05-03T07:13:07.112Z,1.63
2023-05-03T07:15:35.059Z,2.92
2023-05-03T07:18:03.161Z,0.80
2023-05-03T07:20:31.395Z,1.85
2023-05-03T07:23:00.877Z,0.93
2023-05-03T07:25:30.312Z,8.95
2023-05-03T07:27:58.280Z,4.05
2023-05-03T07:30:26.844Z,2.10
2023-05-03T07:32:55.077Z,3.97
2023-05-03T07:35:23.904Z,0.68
2023-05-03T07:37:51.886Z,3.90
2023-05-03T07:40:19.940Z,5.75
2023-05-03T07:42:49.437Z,3.20
2023-05-03T07:45:18.392Z,1.40
2023-05-03T07:47:46.463Z,1.88
2023-05-03T07:50:14.537Z,1.05
2023-05-03T07:52:43.474Z,1.00
2023-05-03T07:55:11.664Z,9.45
2023-05-03T07:57:39.645Z,6.35
2023-05-03T08:00:12.457Z,3.47
2023-05-03T08:02:40.779Z,3.75
2023-05-03T08:05:09.867Z,1.20
2023-05-03T08:07:38.240Z,1.75
2023-05-03T08:10:06.894Z,2.22
2023-05-03T08:12:34.876Z,0.95
2023-05-03T08:15:04.966Z,2.00
2023-05-03T08:17:40.708Z,1.90
2023-05-03T08:20:10.071Z,1.35
2023-05-03T08:22:38.657Z,2.45
2023-05-03T08:25:07.693Z,2.88
2023-05-03T08:27:35.566Z,0.75
2023-05-03T08:30:04.078Z,3.05
2023-05-03T08:32:32.650Z,2.30
2023-05-03T08:35:05.713Z,0.70
2023-05-03T08:37:39.423Z,2.35
2023-05-03T08:40:10.133Z,1.08
2023-05-03T08:42:40.722Z,1.40
2023-05-03T08:45:12.119Z,2.95
2023-05-03T08:47:41.804Z,7.13
2023-05-03T08:50:12.401Z,1.73
2023-05-03T08:52:40.941Z,0.28
2023-05-03T08:55:09.373Z,0.73
2023-05-03T08:57:37.651Z,0.93
2023-05-03T09:00:10.693Z,1.27
2023-05-03T09:02:39.940Z,1.38
2023-05-03T09:05:38.998Z,1.10
2023-05-03T09:08:09.204Z,11.18
2023-05-03T09:10:40.522Z,2.00
2023-05-03T09:13:09.185Z,1.45
2023-05-03T09:15:37.475Z,2.83
2023-05-03T09:18:14.050Z,2.63
2023-05-03T09:20:51.327Z,1.13
2023-05-03T09:23:21.155Z,2.42
2023-05-03T09:25:51.323Z,6.03
2023-05-03T09:28:20.482Z,1.77
2023-05-03T09:30:49.301Z,2.97
2023-05-03T09:33:21.453Z,0.88
2023-05-03T09:35:59.344Z,1.67
2023-05-03T09:38:28.868Z,5.63
2023-05-03T09:40:56.888Z,2.40
2023-05-03T09:43:24.859Z,2.25
2023-05-03T09:45:52.981Z,1.63
2023-05-03T09:48:23.705Z,8.38
2023-05-03T09:50:52.651Z,2.80
2023-05-03T09:53:23.726Z,3.78
2023-05-03T09:55:52.923Z,1.20
2023-05-03T09:58:22.072Z,2.40
2023-05-03T10:00:52.629Z,2.67
2023-05-03T10:03:25.668Z,2.78
2023-05-03T10:05:54.544Z,3.20
2023-05-03T10:08:28.963Z,2.03
2023-05-03T10:10:57.648Z,2.65
2023-05-03T10:13:26.273Z,2.10
2023-05-03T10:16:00.199Z,3.80
2023-05-03T10:18:31.051Z,4.50
2023-05-03T10:21:05.321Z,5.75
2023-05-03T10:23:34.600Z,1.55
2023-05-03T10:26:15.816Z,1.38
2023-05-03T10:28:44.019Z,2.50
2023-05-03T10:31:48.535Z,3.60
2023-05-03T10:34:22.439Z,4.78
2023-05-03T10:36:53.302Z,2.10
2023-05-03T10:39:23.404Z,1.65
2023-05-03T10:42:01.462Z,1.58
2023-05-03T10:44:35.906Z,1.58
2023-05-03T10:47:12.735Z,1.23
2023-05-03T10:49:40.775Z,1.25
2023-05-03T10:52:42.029Z,3.90
2023-05-03T10:55:13.113Z,1.27
2023-05-03T10:57:43.654Z,3.33
2023-05-03T11:00:16.528Z,1.23
2023-05-03T11:03:03.987Z,1.65
2023-05-03T11:05:33.817Z,4.18
2023-05-03T11:08:12.848Z,1.73
2023-05-03T11:10:42.857Z,4.63
2023-05-03T11:13:11.105Z,1.80
2023-05-03T11:15:39.840Z,4.82
2023-05-03T11:18:08.290Z,5.22
2023-05-03T11:20:37.220Z,4.95
2023-05-03T11:23:07.064Z,2.33
2023-05-03T11:25:35.728Z,1.42
2023-05-03T11:28:05.784Z,5.65
2023-05-03T11:30:35.460Z,1.75
2023-05-03T11:33:03.681Z,5.18
2023-05-03T11:35:31.955Z,1.58
2023-05-03T11:37:59.928Z,1.75
2023-05-03T11:40:27.941Z,1.38
2023-05-03T11:42:57.933Z,1.63
2023-05-03T11:45:30.566Z,0.60
2023-05-03T11:47:59.404Z,3.35
2023-05-03T11:50:46.454Z,3.42
2023-05-03T11:53:15.105Z,1.02
2023-05-03T11:55:44.208Z,2.88
2023-05-03T11:58:14.765Z,3.05
2023-05-03T12:00:47.648Z,7.97
2023-05-03T12:03:20.124Z,1.33
2023-05-03T12:05:49.759Z,1.80
2023-05-03T12:08:20.815Z,1.00
2023-05-03T12:10:51.005Z,1.77
2023-05-03T12:13:29.817Z,0.57
2023-05-03T12:16:11.737Z,3.67
2023-05-03T12:18:51.213Z,1.35
2023-05-03T12:23:55.987Z,1.02
2023-05-03T12:26:25.550Z,0.20
2023-05-03T12:28:56.628Z,2.28
2023-05-03T12:31:29.020Z,0.57
2023-05-03T12:34:11.231Z,1.20
2023-05-03T12:36:48.860Z,0.57
2023-05-03T12:39:20.144Z,2.75
2023-05-03T12:42:06.466Z,4.47
2023-05-03T12:44:36.114Z,0.57
2023-05-03T12:47:09.579Z,2.10
2023-05-03T12:49:39.480Z,16.10
2023-05-03T12:54:41.787Z,5.50
2023-05-03T12:57:15.592Z,1.35
2023-05-03T12:59:51.858Z,6.40
2023-05-03T13:04:59.561Z,0.43
2023-05-03T13:07:32.323Z,3.65
2023-05-03T13:12:36.409Z,2.42
2023-05-03T13:15:05.408Z,4.43
2023-05-03T13:17:35.134Z,5.00
2023-05-03T13:20:03.295Z,5.25
2023-05-03T13:22:31.498Z,1.38
2023-05-03T13:24:59.459Z,2.47
2023-05-03T13:27:27.849Z,1.55
2023-05-03T13:29:55.864Z,5.05
2023-05-03T13:32:24.453Z,3.00
2023-05-03T13:34:53.910Z,0.68
2023-05-03T13:37:21.947Z,0.55
2023-05-03T13:39:49.910Z,2.22
2023-05-03T13:42:17.968Z,2.03
2023-05-03T13:44:47.602Z,0.80
2023-05-03T13:47:15.726Z,1.60
2023-05-03T13:49:43.789Z,0.30
2023-05-03T13:52:13.538Z,1.77
2023-05-03T13:54:42.396Z,0.77
2023-05-03T13:57:10.723Z,0.98
2023-05-03T13:59:38.821Z,0.60
2023-05-03T14:02:06.869Z,1.35
2023-05-03T14:04:35.210Z,0.60
2023-05-03T14:07:04.175Z,1.27
2023-05-03T14:09:38.837Z,0.32
2023-05-03T14:12:07.929Z,0.77
2023-05-03T14:14:36.617Z,0.93
2023-05-03T14:17:04.747Z,0.52
2023-05-03T14:19:35.964Z,0.63
2023-05-03T14:22:04.442Z,2.15
2023-05-03T14:24:33.782Z,2.38
2023-05-03T14:27:01.959Z,2.90
2023-05-03T14:29:29.993Z,2.30
2023-05-03T14:31:58.151Z,1.17
2023-05-03T14:34:26.141Z,1.10
2023-05-03T14:36:54.165Z,0.50
2023-05-03T14:39:22.415Z,1.27
2023-05-03T14:41:51.831Z,2.10
2023-05-03T14:44:20.526Z,1.42
2023-05-03T14:46:48.601Z,1.20
2023-05-03T14:49:17.776Z,0.75
2023-05-03T14:51:45.764Z,1.08
2023-05-03T14:54:13.825Z,1.25
2023-05-03T14:56:41.865Z,0.75
2023-05-03T14:59:11.276Z,0.70
2023-05-03T15:01:39.319Z,2.25
2023-05-03T15:04:07.823Z,3.92
2023-05-03T15:06:39.032Z,4.82
2023-05-03T15:09:08.647Z,3.10
2023-05-03T15:11:36.584Z,0.60
2023-05-03T15:14:04.609Z,1.98
2023-05-03T15:16:36.547Z,1.52
2023-05-03T15:19:07.266Z,0.38
2023-05-03T15:21:47.448Z,0.68
2023-05-03T15:24:15.512Z,1.17
2023-05-03T15:26:43.605Z,4.72
2023-05-03T15:29:12.235Z,0.38
2023-05-03T15:31:41.974Z,0.85
2023-05-03T15:34:11.287Z,0.75
2023-05-03T15:36:39.324Z,0.30
2023-05-03T15:39:07.296Z,2.38
2023-05-03T15:41:35.358Z,1.58
2023-05-03T15:44:05.373Z,1.60
2023-05-03T15:46:33.728Z,0.65
2023-05-03T15:49:03.223Z,3.05
2023-05-03T15:51:31.763Z,0.75
2023-05-03T15:53:59.955Z,1.45
2023-05-03T15:56:28.697Z,1.63
2023-05-03T15:58:56.816Z,3.95
2023-05-03T16:01:25.186Z,1.33
2023-05-03T16:03:53.440Z,1.23
2023-05-03T16:06:23.142Z,1.65
2023-05-03T16:08:51.178Z,0.73
2023-05-03T16:11:20.154Z,2.92
2023-05-03T16:13:48.132Z,0.60
2023-05-03T16:16:16.196Z,1.45
2023-05-03T16:18:46.377Z,0.63
2023-05-03T16:21:14.485Z,0.20
2023-05-03T16:23:43.920Z,0.32
2023-05-03T16:26:14.496Z,2.67
2023-05-03T16:28:42.592Z,0.40
2023-05-03T16:31:10.604Z,1.38
2023-05-03T16:33:38.602Z,5.05
2023-05-03T16:36:06.884Z,1.77
2023-05-03T16:38:34.991Z,4.60
2023-05-03T16:41:04.512Z,0.95
2023-05-03T16:43:33.141Z,0.98
2023-05-03T16:46:02.467Z,0.57
2023-05-03T16:48:30.994Z,0.50
2023-05-03T16:50:59.187Z,1.02
2023-05-03T16:53:27.167Z,2.38
2023-05-03T16:55:55.464Z,0.30
2023-05-03T16:58:24.898Z,0.30
2023-05-03T17:00:53.523Z,1.05
2023-05-03T17:03:21.971Z,1.42
2023-05-03T17:05:50.101Z,1.13
2023-05-03T17:08:18.203Z,2.95
2023-05-03T17:10:46.300Z,1.02
2023-05-03T17:13:15.016Z,1.15
2023-05-03T17:15:44.547Z,2.00
2023-05-03T17:18:12.499Z,1.27
2023-05-03T17:20:40.525Z,1.33
2023-05-03T17:23:09.591Z,0.63
2023-05-03T17:25:37.619Z,0.85
2023-05-03T17:28:05.949Z,1.13
2023-05-03T17:30:34.687Z,0.45
2023-05-03T17:33:04.160Z,1.27
2023-05-03T17:35:32.088Z,1.88
2023-05-03T17:38:00.163Z,1.10
2023-05-03T17:40:28.153Z,0.98
2023-05-03T17:42:57.524Z,0.55
2023-05-03T17:45:27.589Z,1.33
2023-05-03T17:47:56.413Z,0.35
2023-05-03T17:50:26.036Z,0.50
2023-05-03T17:52:55.425Z,0.57
2023-05-03T17:57:51.432Z,2.53
2023-05-03T18:00:21.346Z,2.78
2023-05-03T18:02:49.595Z,0.93
2023-05-03T18:05:17.692Z,2.15
2023-05-03T18:07:47.075Z,0.50
2023-05-03T18:10:15.580Z,2.15
2023-05-03T18:12:44.143Z,1.88
2023-05-03T18:15:12.650Z,0.88
2023-05-03T18:17:41.054Z,1.02
2023-05-03T18:20:10.560Z,0.63
2023-05-03T18:22:38.599Z,3.00
2023-05-03T18:25:08.706Z,7.47
2023-05-03T18:27:37.854Z,5.85
2023-05-03T18:30:07.420Z,4.30
2023-05-03T18:32:35.819Z,1.95
2023-05-03T18:35:04.294Z,3.20
2023-05-03T18:37:32.342Z,5.60
2023-05-03T18:40:00.393Z,24.92
2023-05-03T18:42:31.892Z,21.98
2023-05-03T18:44:59.889Z,13.88
2023-05-03T18:47:28.707Z,11.77
2023-05-03T18:49:56.769Z,13.18
2023-05-03T18:52:24.753Z,8.20
2023-05-03T18:54:52.713Z,8.75
2023-05-03T18:57:20.842Z,7.75
2023-05-03T18:59:59.963Z,12.18
2023-05-03T19:02:31.146Z,15.70
2023-05-03T19:05:00.175Z,14.75
2023-05-03T19:07:28.477Z,15.77
2023-05-03T19:09:56.557Z,13.90
2023-05-03T19:12:25.416Z,11.52
2023-05-03T19:14:54.891Z,7.20
2023-05-03T19:17:23.098Z,6.72
2023-05-03T19:19:51.415Z,6.85
2023-05-03T19:22:19.439Z,4.47
2023-05-03T19:24:48.027Z,6.10
2023-05-03T19:27:16.959Z,7.53
2023-05-03T19:29:45.385Z,4.18
2023-05-03T19:32:14.771Z,4.13
2023-05-03T19:34:42.993Z,4.93
2023-05-03T19:37:11.776Z,4.40
2023-05-03T19:39:39.795Z,5.70
2023-05-03T19:42:08.967Z,2.15
2023-05-03T19:44:37.506Z,3.90
2023-05-03T19:47:05.502Z,2.75
2023-05-03T19:49:35.183Z,1.98
2023-05-03T19:52:04.577Z,2.25
2023-05-03T19:54:33.146Z,2.60
2023-05-03T19:57:04.697Z,1.75
2023-05-03T19:59:33.034Z,2.05
2023-05-03T20:02:01.168Z,2.42
2023-05-03T20:04:29.389Z,1.08
2023-05-03T20:06:58.746Z,1.38
2023-05-03T20:09:26.823Z,3.13
2023-05-03T20:11:58.697Z,2.72
2023-05-03T20:14:27.892Z,3.65
2023-05-03T20:16:56.938Z,1.63
2023-05-03T20:19:25.678Z,1.00
2023-05-03T20:21:53.786Z,1.83
2023-05-03T20:24:23.560Z,1.60
2023-05-03T20:26:51.733Z,2.30
2023-05-03T20:29:19.831Z,1.20
2023-05-03T20:31:48.627Z,1.50
2023-05-03T20:34:16.802Z,1.35
2023-05-03T20:36:44.776Z,2.47
2023-05-03T20:39:12.768Z,1.52
2023-05-03T20:41:42.304Z,0.75
2023-05-03T20:44:10.201Z,2.25
2023-05-03T20:46:38.877Z,1.65
2023-05-03T20:49:09.020Z,2.63
2023-05-03T20:51:37.901Z,1.27
2023-05-03T20:54:06.075Z,1.60
2023-05-03T20:56:34.363Z,1.38
2023-05-03T20:59:04.404Z,2.50
2023-05-03T21:01:32.848Z,2.05
2023-05-03T21:04:00.966Z,2.03
2023-05-03T21:06:29.055Z,2.55
2023-05-03T21:08:57.236Z,5.50
2023-05-03T21:11:25.371Z,14.02
2023-05-03T21:13:53.352Z,5.00
2023-05-03T21:16:22.903Z,16.38
2023-05-03T21:18:50.886Z,9.48
2023-05-03T21:21:18.911Z,8.63
2023-05-03T21:23:46.876Z,5.55
2023-05-03T21:26:16.121Z,6.35
2023-05-03T21:28:44.104Z,3.47
2023-05-03T21:31:12.177Z,5.95
2023-05-03T21:33:41.495Z,6.15
2023-05-03T21:36:09.744Z,6.72
2023-05-03T21:38:37.939Z,3.17
2023-05-03T21:41:06.437Z,3.90
2023-05-03T21:43:35.840Z,2.85
2023-05-03T21:46:04.083Z,4.22
2023-05-03T21:48:31.975Z,5.97
2023-05-03T21:51:01.386Z,3.47
2023-05-03T21:53:29.566Z,4.97
2023-05-03T21:55:57.592Z,4.97
2023-05-03T21:58:26.066Z,4.93
2023-05-03T22:00:54.511Z,3.05
2023-05-03T22:03:22.619Z,4.68
2023-05-03T22:05:51.494Z,3.17
2023-05-03T22:08:20.872Z,4.97
2023-05-03T22:10:48.803Z,4.05
2023-05-03T22:13:18.034Z,3.17
2023-05-03T22:15:46.191Z,2.85
2023-05-03T22:18:14.894Z,8.00
2023-05-03T22:20:42.998Z,48.85
2023-05-03T22:23:11.081Z,43.58
2023-05-03T22:25:40.415Z,33.25
2023-05-03T22:28:08.345Z,23.50
2023-05-03T22:30:36.380Z,20.60
2023-05-03T22:33:04.430Z,26.80
2023-05-03T22:35:32.537Z,16.83
2023-05-03T22:38:00.588Z,19.55
2023-05-03T22:40:28.592Z,17.52
2023-05-03T22:42:57.888Z,11.13
2023-05-03T22:45:26.397Z,8.70
2023-05-03T22:47:54.468Z,11.63
2023-05-03T22:50:22.719Z,9.00
2023-05-03T22:52:50.702Z,10.70
2023-05-03T22:55:18.876Z,10.90
2023-05-03T22:57:46.830Z,7.13
2023-05-03T23:00:17.655Z,8.50
2023-05-03T23:02:45.773Z,12.25
2023-05-03T23:05:13.801Z,7.88
2023-05-03T23:07:43.084Z,7.32
2023-05-03T23:10:12.125Z,5.43
2023-05-03T23:12:40.362Z,6.32
2023-05-03T23:15:09.057Z,5.07
2023-05-03T23:17:38.485Z,6.35
2023-05-03T23:20:07.729Z,6.00
2023-05-03T23:22:35.958Z,5.50
2023-05-03T23:25:03.971Z,5.18
2023-05-03T23:27:31.917Z,5.00
2023-05-03T23:30:00.432Z,4.32
2023-05-03T23:32:29.042Z,4.60
2023-05-03T23:34:58.759Z,5.07
2023-05-03T23:37:26.816Z,5.13
2023-05-03T23:39:54.829Z,2.95
2023-05-03T23:42:24.485Z,4.05
2023-05-03T23:44:55.213Z,7.72
2023-05-03T23:47:24.304Z,4.70
2023-05-03T23:49:52.477Z,3.72
2023-05-03T23:52:21.830Z,3.53
2023-05-03T23:54:49.834Z,3.22
2023-05-03T23:57:17.914Z,2.67
2023-05-03T23:59:46.099Z,2.90
